sensor_id;sensor_type;location;lat;lon;timestamp;pressure;altitude;pressure_sealevel;temperature
44791;BMP280;30510;37.536;-122.304;2022-07-29T00:00:40;101160.69;;;20.02
44791;BMP280;30510;37.536;-122.304;2022-07-29T00:03:06;101157.69;;;19.94
44791;BMP280;30510;37.536;-122.304;2022-07-29T00:05:31;101165.00;;;19.81
44791;BMP280;30510;37.536;-122.304;2022-07-29T00:07:57;101164.47;;;20.78
44791;BMP280;30510;37.536;-122.304;2022-07-29T00:10:22;101151.41;;;21.47
44791;BMP280;30510;37.536;-122.304;2022-07-29T00:12:47;101157.69;;;22.00
44791;BMP280;30510;37.536;-122.304;2022-07-29T00:15:13;101156.63;;;22.43
44791;BMP280;30510;37.536;-122.304;2022-07-29T00:17:38;101151.78;;;22.76
44791;BMP280;30510;37.536;-122.304;2022-07-29T00:20:04;101158.00;;;23.08
44791;BMP280;30510;37.536;-122.304;2022-07-29T00:22:29;101161.41;;;23.30
44791;BMP280;30510;37.536;-122.304;2022-07-29T00:24:55;101162.06;;;23.53
44791;BMP280;30510;37.536;-122.304;2022-07-29T00:27:20;101157.66;;;23.70
44791;BMP280;30510;37.536;-122.304;2022-07-29T00:29:46;101171.22;;;23.33
44791;BMP280;30510;37.536;-122.304;2022-07-29T00:32:11;101165.78;;;22.22
44791;BMP280;30510;37.536;-122.304;2022-07-29T00:34:36;101160.47;;;21.48
44791;BMP280;30510;37.536;-122.304;2022-07-29T00:37:02;101163.34;;;21.03
44791;BMP280;30510;37.536;-122.304;2022-07-29T00:39:27;101171.03;;;20.65
44791;BMP280;30510;37.536;-122.304;2022-07-29T00:41:53;101173.16;;;20.38
44791;BMP280;30510;37.536;-122.304;2022-07-29T00:44:18;101172.59;;;20.12
44791;BMP280;30510;37.536;-122.304;2022-07-29T00:46:43;101171.56;;;20.47
44791;BMP280;30510;37.536;-122.304;2022-07-29T00:49:09;101171.78;;;21.32
44791;BMP280;30510;37.536;-122.304;2022-07-29T00:51:35;101171.41;;;21.90
44791;BMP280;30510;37.536;-122.304;2022-07-29T00:54:01;101165.75;;;22.33
44791;BMP280;30510;37.536;-122.304;2022-07-29T00:56:27;101159.78;;;22.69
44791;BMP280;30510;37.536;-122.304;2022-07-29T00:58:54;101163.59;;;22.97
44791;BMP280;30510;37.536;-122.304;2022-07-29T01:01:21;101172.47;;;23.19
44791;BMP280;30510;37.536;-122.304;2022-07-29T01:03:46;101170.81;;;23.37
44791;BMP280;30510;37.536;-122.304;2022-07-29T01:06:12;101166.50;;;23.53
44791;BMP280;30510;37.536;-122.304;2022-07-29T01:08:37;101171.63;;;23.67
44791;BMP280;30510;37.536;-122.304;2022-07-29T01:11:03;101168.59;;;23.80
44791;BMP280;30510;37.536;-122.304;2022-07-29T01:13:29;101169.22;;;23.93
44791;BMP280;30510;37.536;-122.304;2022-07-29T01:15:59;101179.06;;;22.67
44791;BMP280;30510;37.536;-122.304;2022-07-29T01:18:30;101188.34;;;21.73
44791;BMP280;30510;37.536;-122.304;2022-07-29T01:29:07;101188.16;;;21.10
44791;BMP280;30510;37.536;-122.304;2022-07-29T01:31:47;101180.84;;;21.86
44791;BMP280;30510;37.536;-122.304;2022-07-29T01:39:31;101185.94;;;22.82
44791;BMP280;30510;37.536;-122.304;2022-07-29T01:42:10;101196.00;;;23.02
44791;BMP280;30510;37.536;-122.304;2022-07-29T01:44:39;101197.25;;;23.18
44791;BMP280;30510;37.536;-122.304;2022-07-29T01:47:16;101198.59;;;23.33
44791;BMP280;30510;37.536;-122.304;2022-07-29T01:49:44;101200.94;;;23.47
44791;BMP280;30510;37.536;-122.304;2022-07-29T01:52:13;101204.59;;;23.56
44791;BMP280;30510;37.536;-122.304;2022-07-29T01:54:45;101191.69;;;23.68
44791;BMP280;30510;37.536;-122.304;2022-07-29T01:57:13;101196.31;;;23.77
44791;BMP280;30510;37.536;-122.304;2022-07-29T01:59:39;101193.72;;;23.85
44791;BMP280;30510;37.536;-122.304;2022-07-29T02:02:06;101195.78;;;23.92
44791;BMP280;30510;37.536;-122.304;2022-07-29T02:04:32;101187.09;;;23.96
44791;BMP280;30510;37.536;-122.304;2022-07-29T02:07:00;101188.13;;;23.96
44791;BMP280;30510;37.536;-122.304;2022-07-29T02:09:26;101201.84;;;24.05
44791;BMP280;30510;37.536;-122.304;2022-07-29T02:11:53;101195.75;;;24.11
44791;BMP280;30510;37.536;-122.304;2022-07-29T02:14:21;101205.47;;;24.15
44791;BMP280;30510;37.536;-122.304;2022-07-29T02:16:48;101198.66;;;24.19
44791;BMP280;30510;37.536;-122.304;2022-07-29T02:19:16;101196.34;;;24.24
44791;BMP280;30510;37.536;-122.304;2022-07-29T02:21:42;101193.31;;;24.27
44791;BMP280;30510;37.536;-122.304;2022-07-29T02:24:08;101194.97;;;23.23
44791;BMP280;30510;37.536;-122.304;2022-07-29T02:26:35;101207.63;;;22.02
44791;BMP280;30510;37.536;-122.304;2022-07-29T02:29:01;101208.78;;;21.25
44791;BMP280;30510;37.536;-122.304;2022-07-29T02:31:28;101205.88;;;20.72
44791;BMP280;30510;37.536;-122.304;2022-07-29T02:33:55;101211.31;;;20.27
44791;BMP280;30510;37.536;-122.304;2022-07-29T02:36:21;101208.78;;;21.25
44791;BMP280;30510;37.536;-122.304;2022-07-29T02:38:47;101217.34;;;21.95
44791;BMP280;30510;37.536;-122.304;2022-07-29T02:41:15;101215.84;;;22.33
44791;BMP280;30510;37.536;-122.304;2022-07-29T02:43:41;101220.78;;;22.60
44791;BMP280;30510;37.536;-122.304;2022-07-29T02:46:10;101218.66;;;22.83
44791;BMP280;30510;37.536;-122.304;2022-07-29T02:48:37;101216.06;;;23.02
44791;BMP280;30510;37.536;-122.304;2022-07-29T02:51:13;101212.19;;;23.14
44791;BMP280;30510;37.536;-122.304;2022-07-29T02:53:43;101219.78;;;23.31
44791;BMP280;30510;37.536;-122.304;2022-07-29T02:56:13;101217.38;;;23.37
44791;BMP280;30510;37.536;-122.304;2022-07-29T02:58:44;101219.41;;;23.45
44791;BMP280;30510;37.536;-122.304;2022-07-29T03:01:14;101222.59;;;23.50
44791;BMP280;30510;37.536;-122.304;2022-07-29T03:03:40;101235.72;;;23.55
44791;BMP280;30510;37.536;-122.304;2022-07-29T03:06:07;101229.72;;;23.61
44791;BMP280;30510;37.536;-122.304;2022-07-29T03:08:33;101234.78;;;23.66
44791;BMP280;30510;37.536;-122.304;2022-07-29T03:10:59;101236.25;;;23.70
44791;BMP280;30510;37.536;-122.304;2022-07-29T03:13:25;101240.56;;;23.72
44791;BMP280;30510;37.536;-122.304;2022-07-29T03:15:51;101243.03;;;23.75
44791;BMP280;30510;37.536;-122.304;2022-07-29T03:18:17;101240.03;;;23.78
44791;BMP280;30510;37.536;-122.304;2022-07-29T03:20:42;101249.84;;;23.81
44791;BMP280;30510;37.536;-122.304;2022-07-29T03:23:08;101239.59;;;23.83
44791;BMP280;30510;37.536;-122.304;2022-07-29T03:25:34;101232.97;;;23.85
44791;BMP280;30510;37.536;-122.304;2022-07-29T03:27:59;101235.56;;;23.87
44791;BMP280;30510;37.536;-122.304;2022-07-29T03:30:25;101235.56;;;23.87
44791;BMP280;30510;37.536;-122.304;2022-07-29T03:32:50;101228.09;;;23.89
44791;BMP280;30510;37.536;-122.304;2022-07-29T03:35:16;101234.28;;;23.91
44791;BMP280;30510;37.536;-122.304;2022-07-29T03:37:42;101228.66;;;23.92
44791;BMP280;30510;37.536;-122.304;2022-07-29T03:40:07;101228.66;;;23.92
44791;BMP280;30510;37.536;-122.304;2022-07-29T03:42:33;101224.91;;;23.93
44791;BMP280;30510;37.536;-122.304;2022-07-29T03:45:05;101224.91;;;23.93
44791;BMP280;30510;37.536;-122.304;2022-07-29T03:47:31;101226.66;;;23.94
44791;BMP280;30510;37.536;-122.304;2022-07-29T03:49:59;101225.63;;;23.95
44791;BMP280;30510;37.536;-122.304;2022-07-29T03:52:25;101217.41;;;23.95
44791;BMP280;30510;37.536;-122.304;2022-07-29T03:54:51;101232.00;;;23.96
44791;BMP280;30510;37.536;-122.304;2022-07-29T03:57:16;101217.41;;;23.95
44791;BMP280;30510;37.536;-122.304;2022-07-29T03:59:44;101228.34;;;23.95
44791;BMP280;30510;37.536;-122.304;2022-07-29T04:02:11;101230.81;;;23.98
44791;BMP280;30510;37.536;-122.304;2022-07-29T04:04:37;101227.38;;;23.96
44791;BMP280;30510;37.536;-122.304;2022-07-29T04:07:02;101231.81;;;23.97
44791;BMP280;30510;37.536;-122.304;2022-07-29T04:09:28;101228.09;;;23.98
44791;BMP280;30510;37.536;-122.304;2022-07-29T04:11:54;101234.56;;;23.97
44791;BMP280;30510;37.536;-122.304;2022-07-29T04:14:19;101240.94;;;23.97
44791;BMP280;30510;37.536;-122.304;2022-07-29T04:16:44;101231.81;;;23.97
44791;BMP280;30510;37.536;-122.304;2022-07-29T04:19:10;101248.00;;;24.00
44791;BMP280;30510;37.536;-122.304;2022-07-29T04:21:39;101240.34;;;23.94
44791;BMP280;30510;37.536;-122.304;2022-07-29T04:24:04;101244.41;;;23.99
44791;BMP280;30510;37.536;-122.304;2022-07-29T04:26:30;101238.06;;;23.99
44791;BMP280;30510;37.536;-122.304;2022-07-29T04:28:55;101248.84;;;24.00
44791;BMP280;30510;37.536;-122.304;2022-07-29T04:31:21;101246.88;;;24.02
44791;BMP280;30510;37.536;-122.304;2022-07-29T04:33:46;101246.88;;;24.02
44791;BMP280;30510;37.536;-122.304;2022-07-29T04:36:12;101250.59;;;24.01
44791;BMP280;30510;37.536;-122.304;2022-07-29T04:38:37;101258.69;;;24.03
44791;BMP280;30510;37.536;-122.304;2022-07-29T04:41:03;101260.72;;;24.01
44791;BMP280;30510;37.536;-122.304;2022-07-29T04:43:28;101261.44;;;24.03
44791;BMP280;30510;37.536;-122.304;2022-07-29T04:45:53;101253.19;;;24.03
44791;BMP280;30510;37.536;-122.304;2022-07-29T04:48:19;101256.94;;;24.02
44791;BMP280;30510;37.536;-122.304;2022-07-29T04:50:44;101261.44;;;24.03
44791;BMP280;30510;37.536;-122.304;2022-07-29T04:53:10;101254.34;;;24.00
44791;BMP280;30510;37.536;-122.304;2022-07-29T04:55:35;101266.91;;;24.03
44791;BMP280;30510;37.536;-122.304;2022-07-29T04:58:00;101274.28;;;24.02
44791;BMP280;30510;37.536;-122.304;2022-07-29T05:00:26;101286.09;;;24.03
44791;BMP280;30510;37.536;-122.304;2022-07-29T05:02:51;101276.13;;;24.02
44791;BMP280;30510;37.536;-122.304;2022-07-29T05:05:17;101277.03;;;24.02
44791;BMP280;30510;37.536;-122.304;2022-07-29T05:07:42;101274.56;;;23.99
44791;BMP280;30510;37.536;-122.304;2022-07-29T05:10:08;101277.75;;;24.04
44791;BMP280;30510;37.536;-122.304;2022-07-29T05:12:33;101283.38;;;24.03
44791;BMP280;30510;37.536;-122.304;2022-07-29T05:14:59;101281.91;;;23.99
44791;BMP280;30510;37.536;-122.304;2022-07-29T05:17:24;101289.25;;;23.98
44791;BMP280;30510;37.536;-122.304;2022-07-29T05:19:50;101297.91;;;23.94
44791;BMP280;30510;37.536;-122.304;2022-07-29T05:22:15;101298.63;;;23.96
44791;BMP280;30510;37.536;-122.304;2022-07-29T05:24:40;101294.44;;;23.92
44791;BMP280;30510;37.536;-122.304;2022-07-29T05:27:06;101295.47;;;24.00
44791;BMP280;30510;37.536;-122.304;2022-07-29T05:29:31;101291.28;;;23.96
44791;BMP280;30510;37.536;-122.304;2022-07-29T05:31:57;101294.16;;;23.95
44791;BMP280;30510;37.536;-122.304;2022-07-29T05:34:22;101292.44;;;23.94
44791;BMP280;30510;37.536;-122.304;2022-07-29T05:36:47;101295.31;;;23.93
44791;BMP280;30510;37.536;-122.304;2022-07-29T05:39:13;101297.59;;;23.88
44791;BMP280;30510;37.536;-122.304;2022-07-29T05:41:38;101287.63;;;23.87
44791;BMP280;30510;37.536;-122.304;2022-07-29T05:44:04;101292.13;;;23.88
44791;BMP280;30510;37.536;-122.304;2022-07-29T05:46:29;101288.94;;;23.83
44791;BMP280;30510;37.536;-122.304;2022-07-29T05:48:54;101289.78;;;23.83
44791;BMP280;30510;37.536;-122.304;2022-07-29T05:51:20;101293.28;;;23.85
44791;BMP280;30510;37.536;-122.304;2022-07-29T05:53:45;101290.38;;;23.87
44791;BMP280;30510;37.536;-122.304;2022-07-29T05:56:11;101288.78;;;23.84
44791;BMP280;30510;37.536;-122.304;2022-07-29T05:58:36;101293.56;;;23.82
44791;BMP280;30510;37.536;-122.304;2022-07-29T06:01:02;101285.31;;;23.82
44791;BMP280;30510;37.536;-122.304;2022-07-29T06:03:27;101280.84;;;23.81
44791;BMP280;30510;37.536;-122.304;2022-07-29T06:05:53;101283.56;;;23.81
44791;BMP280;30510;37.536;-122.304;2022-07-29T06:08:18;101282.84;;;23.79
44791;BMP280;30510;37.536;-122.304;2022-07-29T06:10:44;101289.19;;;23.80
44791;BMP280;30510;37.536;-122.304;2022-07-29T06:13:09;101282.84;;;23.79
44791;BMP280;30510;37.536;-122.304;2022-07-29T06:15:34;101279.38;;;23.77
44791;BMP280;30510;37.536;-122.304;2022-07-29T06:18:00;101285.88;;;23.76
44791;BMP280;30510;37.536;-122.304;2022-07-29T06:20:25;101275.94;;;23.75
44791;BMP280;30510;37.536;-122.304;2022-07-29T06:22:51;101285.13;;;23.74
44791;BMP280;30510;37.536;-122.304;2022-07-29T06:25:16;101281.69;;;23.72
44791;BMP280;30510;37.536;-122.304;2022-07-29T06:27:42;101285.44;;;23.71
44791;BMP280;30510;37.536;-122.304;2022-07-29T06:30:07;101271.75;;;23.71
44791;BMP280;30510;37.536;-122.304;2022-07-29T06:32:33;101278.22;;;23.70
44791;BMP280;30510;37.536;-122.304;2022-07-29T06:34:58;101273.72;;;23.69
44791;BMP280;30510;37.536;-122.304;2022-07-29T06:37:24;101275.59;;;23.69
44791;BMP280;30510;37.536;-122.304;2022-07-29T06:39:49;101274.03;;;23.66
44791;BMP280;30510;37.536;-122.304;2022-07-29T06:42:14;101274.88;;;23.67
44791;BMP280;30510;37.536;-122.304;2022-07-29T06:44:40;101276.78;;;23.66
44791;BMP280;30510;37.536;-122.304;2022-07-29T06:47:05;101277.75;;;23.65
44791;BMP280;30510;37.536;-122.304;2022-07-29T06:49:31;101276.91;;;23.65
44791;BMP280;30510;37.536;-122.304;2022-07-29T06:51:56;101280.75;;;23.62
44791;BMP280;30510;37.536;-122.304;2022-07-29T06:54:21;101280.03;;;23.60
44791;BMP280;30510;37.536;-122.304;2022-07-29T06:56:47;101275.59;;;23.59
44791;BMP280;30510;37.536;-122.304;2022-07-29T06:59:12;101271.91;;;23.59
44791;BMP280;30510;37.536;-122.304;2022-07-29T07:01:38;101279.28;;;23.58
44791;BMP280;30510;37.536;-122.304;2022-07-29T07:04:04;101281.06;;;23.59
44791;BMP280;30510;37.536;-122.304;2022-07-29T07:06:29;101276.53;;;23.58
44791;BMP280;30510;37.536;-122.304;2022-07-29T07:08:55;101284.75;;;23.58
44791;BMP280;30510;37.536;-122.304;2022-07-29T07:11:20;101290.25;;;23.58
44791;BMP280;30510;37.536;-122.304;2022-07-29T07:13:45;101291.41;;;23.56
44791;BMP280;30510;37.536;-122.304;2022-07-29T07:16:11;101290.69;;;23.54
44791;BMP280;30510;37.536;-122.304;2022-07-29T07:18:36;101286.78;;;23.56
44791;BMP280;30510;37.536;-122.304;2022-07-29T07:21:02;101297.00;;;23.54
44791;BMP280;30510;37.536;-122.304;2022-07-29T07:23:27;101294.41;;;23.53
44791;BMP280;30510;37.536;-122.304;2022-07-29T07:25:52;101297.16;;;23.53
44791;BMP280;30510;37.536;-122.304;2022-07-29T07:28:18;101300.03;;;23.52
44791;BMP280;30510;37.536;-122.304;2022-07-29T07:30:44;101296.56;;;23.50
44791;BMP280;30510;37.536;-122.304;2022-07-29T07:33:10;101291.81;;;23.52
44791;BMP280;30510;37.536;-122.304;2022-07-29T07:35:35;101305.75;;;23.49
44791;BMP280;30510;37.536;-122.304;2022-07-29T07:38:00;101301.19;;;23.49
44791;BMP280;30510;37.536;-122.304;2022-07-29T07:40:26;101297.72;;;23.47
44791;BMP280;30510;37.536;-122.304;2022-07-29T07:42:51;101285.28;;;23.43
44791;BMP280;30510;37.536;-122.304;2022-07-29T07:45:17;101298.84;;;23.45
44791;BMP280;30510;37.536;-122.304;2022-07-29T07:47:42;101295.38;;;23.43
44791;BMP280;30510;37.536;-122.304;2022-07-29T07:50:09;101291.91;;;23.41
44791;BMP280;30510;37.536;-122.304;2022-07-29T07:52:36;101281.94;;;23.40
44791;BMP280;30510;37.536;-122.304;2022-07-29T07:55:10;101282.06;;;23.38
44791;BMP280;30510;37.536;-122.304;2022-07-29T07:57:35;101287.53;;;23.38
44791;BMP280;30510;37.536;-122.304;2022-07-29T08:00:01;101277.75;;;23.36
44791;BMP280;30510;37.536;-122.304;2022-07-29T08:02:26;101276.16;;;23.33
44791;BMP280;30510;37.536;-122.304;2022-07-29T08:04:52;101274.28;;;23.34
44791;BMP280;30510;37.536;-122.304;2022-07-29T08:07:17;101279.03;;;23.32
44791;BMP280;30510;37.536;-122.304;2022-07-29T08:09:43;101285.50;;;23.31
44791;BMP280;30510;37.536;-122.304;2022-07-29T08:12:08;101285.63;;;23.29
44791;BMP280;30510;37.536;-122.304;2022-07-29T08:14:33;101273.81;;;23.29
44791;BMP280;30510;37.536;-122.304;2022-07-29T08:16:59;101278.69;;;23.25
44791;BMP280;30510;37.536;-122.304;2022-07-29T08:19:24;101274.38;;;23.23
44791;BMP280;30510;37.536;-122.304;2022-07-29T08:21:49;101265.00;;;23.25
44791;BMP280;30510;37.536;-122.304;2022-07-29T08:24:15;101269.91;;;23.22
44791;BMP280;30510;37.536;-122.304;2022-07-29T08:26:41;101258.94;;;23.22
44791;BMP280;30510;37.536;-122.304;2022-07-29T08:29:07;101272.63;;;23.22
44791;BMP280;30510;37.536;-122.304;2022-07-29T08:31:32;101268.31;;;23.19
44791;BMP280;30510;37.536;-122.304;2022-07-29T08:33:58;101260.94;;;23.20
44791;BMP280;30510;37.536;-122.304;2022-07-29T08:36:23;101266.44;;;23.20
44791;BMP280;30510;37.536;-122.304;2022-07-29T08:38:48;101269.28;;;23.18
44791;BMP280;30510;37.536;-122.304;2022-07-29T08:41:14;101269.56;;;23.15
44791;BMP280;30510;37.536;-122.304;2022-07-29T08:43:39;101272.16;;;23.17
44791;BMP280;30510;37.536;-122.304;2022-07-29T08:46:05;101263.22;;;23.15
44791;BMP280;30510;37.536;-122.304;2022-07-29T08:48:30;101280.38;;;23.17
44791;BMP280;30510;37.536;-122.304;2022-07-29T08:50:56;101280.50;;;23.15
44791;BMP280;30510;37.536;-122.304;2022-07-29T08:53:22;101277.03;;;23.13
44791;BMP280;30510;37.536;-122.304;2022-07-29T08:55:49;101268.84;;;23.13
44791;BMP280;30510;37.536;-122.304;2022-07-29T08:58:15;101270.72;;;23.13
44791;BMP280;30510;37.536;-122.304;2022-07-29T09:00:41;101271.84;;;23.11
44791;BMP280;30510;37.536;-122.304;2022-07-29T09:03:07;101264.50;;;23.11
44791;BMP280;30510;37.536;-122.304;2022-07-29T09:05:33;101265.50;;;23.10
44791;BMP280;30510;37.536;-122.304;2022-07-29T09:07:59;101255.69;;;23.08
44791;BMP280;30510;37.536;-122.304;2022-07-29T09:10:25;101261.19;;;23.08
44791;BMP280;30510;37.536;-122.304;2022-07-29T09:12:50;101256.56;;;23.08
44791;BMP280;30510;37.536;-122.304;2022-07-29T09:15:17;101251.47;;;23.04
44791;BMP280;30510;37.536;-122.304;2022-07-29T09:17:47;101247.88;;;23.03
44791;BMP280;30510;37.536;-122.304;2022-07-29T09:20:14;101248.91;;;23.02
44791;BMP280;30510;37.536;-122.304;2022-07-29T09:22:40;101253.34;;;23.03
44791;BMP280;30510;37.536;-122.304;2022-07-29T09:25:05;101246.16;;;23.02
44791;BMP280;30510;37.536;-122.304;2022-07-29T09:27:31;101251.63;;;23.02
44791;BMP280;30510;37.536;-122.304;2022-07-29T09:30:00;101249.16;;;22.99
44791;BMP280;30510;37.536;-122.304;2022-07-29T09:32:26;101248.44;;;22.97
44791;BMP280;30510;37.536;-122.304;2022-07-29T09:35:13;101242.06;;;22.97
44791;BMP280;30510;37.536;-122.304;2022-07-29T09:37:37;101246.69;;;22.96
44791;BMP280;30510;37.536;-122.304;2022-07-29T09:40:10;101250.44;;;22.95
44791;BMP280;30510;37.536;-122.304;2022-07-29T09:42:36;101235.28;;;22.91
44791;BMP280;30510;37.536;-122.304;2022-07-29T09:45:01;101241.47;;;22.93
44791;BMP280;30510;37.536;-122.304;2022-07-29T09:47:40;101234.28;;;22.92
44791;BMP280;30510;37.536;-122.304;2022-07-29T09:50:05;101238.13;;;22.90
44791;BMP280;30510;37.536;-122.304;2022-07-29T09:52:31;101245.38;;;22.91
44791;BMP280;30510;37.536;-122.304;2022-07-29T09:55:06;101232.66;;;22.90
44791;BMP280;30510;37.536;-122.304;2022-07-29T09:57:31;101231.06;;;22.87
44791;BMP280;30510;37.536;-122.304;2022-07-29T09:59:58;101233.66;;;22.89
44791;BMP280;30510;37.536;-122.304;2022-07-29T10:02:27;101227.44;;;22.87
44791;BMP280;30510;37.536;-122.304;2022-07-29T10:04:52;101220.09;;;22.87
44791;BMP280;30510;37.536;-122.304;2022-07-29T10:07:18;101222.84;;;22.87
44791;BMP280;30510;37.536;-122.304;2022-07-29T10:09:52;101222.97;;;22.86
44791;BMP280;30510;37.536;-122.304;2022-07-29T10:12:17;101222.13;;;22.85
44791;BMP280;30510;37.536;-122.304;2022-07-29T10:14:43;101222.50;;;22.81
44791;BMP280;30510;37.536;-122.304;2022-07-29T10:17:09;101217.03;;;22.81
44791;BMP280;30510;37.536;-122.304;2022-07-29T10:19:35;101216.28;;;22.79
44791;BMP280;30510;37.536;-122.304;2022-07-29T10:22:01;101213.19;;;22.83
44791;BMP280;30510;37.536;-122.304;2022-07-29T10:24:27;101223.53;;;22.80
44791;BMP280;30510;37.536;-122.304;2022-07-29T10:26:56;101218.91;;;22.80
44791;BMP280;30510;37.536;-122.304;2022-07-29T10:29:22;101219.16;;;22.77
44791;BMP280;30510;37.536;-122.304;2022-07-29T10:31:50;101211.13;;;22.76
44791;BMP280;30510;37.536;-122.304;2022-07-29T10:34:23;101223.78;;;22.77
44791;BMP280;30510;37.536;-122.304;2022-07-29T10:42:27;101221.47;;;22.73
44791;BMP280;30510;37.536;-122.304;2022-07-29T10:44:53;101216.97;;;22.72
44791;BMP280;30510;37.536;-122.304;2022-07-29T10:47:20;101209.75;;;22.71
44791;BMP280;30510;37.536;-122.304;2022-07-29T10:50:04;101219.72;;;22.72
44791;BMP280;30510;37.536;-122.304;2022-07-29T10:55:30;101224.59;;;22.68
44791;BMP280;30510;37.536;-122.304;2022-07-29T10:58:11;101222.59;;;22.70
44791;BMP280;30510;37.536;-122.304;2022-07-29T11:00:37;101231.22;;;22.66
44791;BMP280;30510;37.536;-122.304;2022-07-29T11:03:02;101220.41;;;22.64
44791;BMP280;30510;37.536;-122.304;2022-07-29T11:05:27;101219.38;;;22.65
44791;BMP280;30510;37.536;-122.304;2022-07-29T11:10:37;101212.56;;;22.60
44791;BMP280;30510;37.536;-122.304;2022-07-29T11:13:02;101214.31;;;22.61
44791;BMP280;30510;37.536;-122.304;2022-07-29T11:15:28;101215.06;;;22.63
44791;BMP280;30510;37.536;-122.304;2022-07-29T11:20:31;101215.31;;;22.60
44791;BMP280;30510;37.536;-122.304;2022-07-29T11:23:32;101217.19;;;22.59
44791;BMP280;30510;37.536;-122.304;2022-07-29T11:26:31;101220.78;;;22.60
44791;BMP280;30510;37.536;-122.304;2022-07-29T11:39:32;101217.88;;;22.52
44791;BMP280;30510;37.536;-122.304;2022-07-29T11:44:53;101218.84;;;22.51
44791;BMP280;30510;37.536;-122.304;2022-07-29T11:47:22;101209.91;;;22.49
44791;BMP280;30510;37.536;-122.304;2022-07-29T11:49:47;101218.97;;;22.49
44791;BMP280;30510;37.536;-122.304;2022-07-29T11:52:13;101213.50;;;22.49
44791;BMP280;30510;37.536;-122.304;2022-07-29T11:54:38;101214.53;;;22.48
44791;BMP280;30510;37.536;-122.304;2022-07-29T11:57:07;101227.31;;;22.48
44791;BMP280;30510;37.536;-122.304;2022-07-29T11:59:38;101223.84;;;22.46
44791;BMP280;30510;37.536;-122.304;2022-07-29T12:02:03;101232.31;;;22.43
44791;BMP280;30510;37.536;-122.304;2022-07-29T12:04:29;101227.13;;;22.40
44791;BMP280;30510;37.536;-122.304;2022-07-29T12:06:54;101231.31;;;22.44
44791;BMP280;30510;37.536;-122.304;2022-07-29T12:09:20;101219.53;;;22.43
44791;BMP280;30510;37.536;-122.304;2022-07-29T12:11:46;101227.84;;;22.42
44791;BMP280;30510;37.536;-122.304;2022-07-29T12:14:25;101228.84;;;22.41
44791;BMP280;30510;37.536;-122.304;2022-07-29T12:16:50;101226.41;;;22.38
44791;BMP280;30510;37.536;-122.304;2022-07-29T12:19:16;101226.41;;;22.38
44791;BMP280;30510;37.536;-122.304;2022-07-29T12:21:48;101223.66;;;22.38
44791;BMP280;30510;37.536;-122.304;2022-07-29T12:24:14;101221.91;;;22.37
44791;BMP280;30510;37.536;-122.304;2022-07-29T12:26:49;101218.31;;;22.36
44791;BMP280;30510;37.536;-122.304;2022-07-29T12:29:15;101230.25;;;22.35
44791;BMP280;30510;37.536;-122.304;2022-07-29T12:31:41;101231.09;;;22.36
44791;BMP280;30510;37.536;-122.304;2022-07-29T12:34:07;101231.25;;;22.34
44791;BMP280;30510;37.536;-122.304;2022-07-29T12:36:32;101230.38;;;22.34
44791;BMP280;30510;37.536;-122.304;2022-07-29T12:38:58;101234.97;;;22.33
44791;BMP280;30510;37.536;-122.304;2022-07-29T12:41:23;101233.09;;;22.34
44791;BMP280;30510;37.536;-122.304;2022-07-29T12:43:52;101238.56;;;22.34
44791;BMP280;30510;37.536;-122.304;2022-07-29T12:46:18;101237.72;;;22.33
44791;BMP280;30510;37.536;-122.304;2022-07-29T12:48:43;101235.97;;;22.32
44791;BMP280;30510;37.536;-122.304;2022-07-29T12:51:09;101233.50;;;22.30
44791;BMP280;30510;37.536;-122.304;2022-07-29T12:53:36;101232.63;;;22.29
44791;BMP280;30510;37.536;-122.304;2022-07-29T12:56:02;101226.16;;;22.30
44791;BMP280;30510;37.536;-122.304;2022-07-29T13:03:28;101232.91;;;22.26
44791;BMP280;30510;37.536;-122.304;2022-07-29T13:05:53;101220.22;;;22.25
44791;BMP280;30510;37.536;-122.304;2022-07-29T13:08:18;101224.84;;;22.25
44791;BMP280;30510;37.536;-122.304;2022-07-29T13:10:44;101221.06;;;22.26
44791;BMP280;30510;37.536;-122.304;2022-07-29T13:13:12;101221.38;;;22.23
44791;BMP280;30510;37.536;-122.304;2022-07-29T13:15:41;101229.44;;;22.24
44791;BMP280;30510;37.536;-122.304;2022-07-29T13:20:50;101244.09;;;22.23
44791;BMP280;30510;37.536;-122.304;2022-07-29T13:23:16;101241.47;;;22.22
44791;BMP280;30510;37.536;-122.304;2022-07-29T13:25:41;101235.16;;;22.21
44791;BMP280;30510;37.536;-122.304;2022-07-29T13:28:07;101238.16;;;22.18
44791;BMP280;30510;37.536;-122.304;2022-07-29T13:30:32;101244.34;;;22.20
44791;BMP280;30510;37.536;-122.304;2022-07-29T13:32:58;101246.22;;;22.20
44791;BMP280;30510;37.536;-122.304;2022-07-29T13:35:23;101249.81;;;22.20
44791;BMP280;30510;37.536;-122.304;2022-07-29T13:37:49;101242.84;;;22.16
44791;BMP280;30510;37.536;-122.304;2022-07-29T13:40:14;101245.69;;;22.15
44791;BMP280;30510;37.536;-122.304;2022-07-29T13:42:40;101247.44;;;22.16
44791;BMP280;30510;37.536;-122.304;2022-07-29T13:45:06;101254.66;;;22.17
44791;BMP280;30510;37.536;-122.304;2022-07-29T13:47:32;101254.75;;;22.15
44791;BMP280;30510;37.536;-122.304;2022-07-29T13:49:57;101254.03;;;22.13
44791;BMP280;30510;37.536;-122.304;2022-07-29T13:52:22;101254.03;;;22.13
44791;BMP280;30510;37.536;-122.304;2022-07-29T13:54:48;101255.78;;;22.14
44791;BMP280;30510;37.536;-122.304;2022-07-29T13:57:13;101253.16;;;22.13
44791;BMP280;30510;37.536;-122.304;2022-07-29T13:59:42;101252.31;;;22.12
44791;BMP280;30510;37.536;-122.304;2022-07-29T14:02:09;101254.31;;;22.10
44791;BMP280;30510;37.536;-122.304;2022-07-29T14:04:34;101251.28;;;22.13
44791;BMP280;30510;37.536;-122.304;2022-07-29T14:07:00;101251.41;;;22.12